San Fermin Berria — EBVW — position and weather

sailwx.info

Track history (hours):
 
Tides and Currents Weather Stations Pressure Air Temp Water Temp Dewpoint Dewpoint Depression Visibility Wind Speed Wind Dir Waves Ship Positions

San Fermin Berria

Last reported at 2017-Oct-19 14:43 UTC. Time now 2017-Nov-20 04:16 UTC.
Position N 43°17' W 002°08'.
Warning: this ship's position is 31 days out of date.

Length 30 m.

Type: Fishing. MMSI: 224114650.

Date/timePositionNaut miles runAvg speedWind from/ knotsBaromVisibWave heightAir tempDewpointWater temp
2017-Oct-19 14:43N 43°17' W 002°08'1 4.0
2017-Oct-19 14:30N 43°17' W 002°08'5 9.7
2017-Oct-19 14:01N 43°21' W 002°03'611.1
2017-Oct-19 13:30N 43°23' W 001°56'511.0
2017-Oct-19 13:01N 43°24' W 001°49'1 0.0
2017-Oct-18 00:01N 43°23' W 001°48'0 0.0
2017-Oct-18 00:00N 43°23' W 001°48'0 0.0
2017-Oct-17 17:16N 43°23' W 001°48'0 0.0
2017-Oct-17 17:00N 43°23' W 001°48'2 3.3
2017-Oct-17 16:30N 43°25' W 001°49'4 7.8
2017-Oct-17 16:00N 43°26' W 001°53'4 7.9
2017-Oct-17 15:30N 43°28' W 001°58'24 7.7
2017-Oct-17 12:24N 43°40' W 002°27'4 1.7
2017-Oct-17 10:12N 43°40' W 002°32'1 2.1
2017-Oct-17 09:45N 43°41' W 002°33'0 1.2
2017-Oct-17 09:26N 43°40' W 002°33'3 8.0
2017-Oct-17 09:00N 43°39' W 002°29'611.0
2017-Oct-17 08:30N 43°38' W 002°22'510.8
2017-Oct-17 08:00N 43°37' W 002°14'611.4
2017-Oct-17 07:30N 43°37' W 002°07'510.6
2017-Oct-17 07:00N 43°36' W 001°59'5 9.9
2017-Oct-17 06:30N 43°35' W 001°53'510.0
2017-Oct-17 06:00N 43°31' W 001°49'5 9.5
2017-Oct-17 05:30N 43°26' W 001°47'3 6.0
2017-Oct-17 05:00N 43°23' W 001°47'0 0.1
2017-Oct-17 04:30N 43°23' W 001°47'0 0.2
2017-Oct-17 04:00N 43°23' W 001°48'0 0.0
2017-Oct-17 03:30N 43°23' W 001°48'0 0.0
2017-Oct-17 03:00N 43°23' W 001°48'0 0.0
2017-Oct-17 02:30N 43°23' W 001°48'0 0.0
2017-Oct-17 02:00N 43°23' W 001°48'0 0.0
2017-Oct-17 01:30N 43°23' W 001°48'0 0.0
2017-Oct-17 01:00N 43°23' W 001°48'0 0.0
2017-Oct-17 00:30N 43°23' W 001°48'0 0.0
2017-Oct-17 00:00N 43°23' W 001°48'0 0.0
2017-Oct-16 23:30N 43°23' W 001°48'0 0.0
2017-Oct-16 23:00N 43°23' W 001°48'0 0.0
2017-Oct-16 22:30N 43°23' W 001°48'0 0.0
2017-Oct-16 22:00N 43°23' W 001°48'0 0.0
2017-Oct-16 21:30N 43°23' W 001°48'0 0.0
2017-Oct-16 21:00N 43°23' W 001°48'0 0.0
2017-Oct-16 20:30N 43°23' W 001°48'0 0.0
2017-Oct-16 20:00N 43°23' W 001°48'0 0.0
2017-Oct-16 19:30N 43°23' W 001°48'0 0.0
2017-Oct-16 19:00N 43°23' W 001°48'0 0.0
2017-Oct-16 18:30N 43°23' W 001°48'0 0.0
2017-Oct-16 18:00N 43°23' W 001°48'0 0.0
2017-Oct-16 17:30N 43°23' W 001°48'0 0.0
2017-Oct-16 17:00N 43°23' W 001°48'0 0.0
2017-Oct-16 16:30N 43°23' W 001°48'0 0.0
2017-Oct-16 16:00N 43°23' W 001°48'0 0.0
2017-Oct-16 15:30N 43°23' W 001°48'0 0.0
2017-Oct-16 15:00N 43°23' W 001°48'0 0.0
2017-Oct-16 14:00N 43°23' W 001°48'0 0.0
2017-Oct-16 13:30N 43°23' W 001°48'0 0.0
2017-Oct-16 13:00N 43°23' W 001°48'0 0.0
2017-Oct-16 12:30N 43°23' W 001°48'0 0.0
2017-Oct-16 12:00N 43°23' W 001°48'0 0.0
2017-Oct-16 11:30N 43°23' W 001°48'0 0.0
2017-Oct-16 11:00N 43°23' W 001°48'0 0.0
2017-Oct-16 10:30N 43°23' W 001°48'0 0.0
2017-Oct-16 10:00N 43°23' W 001°48'0 0.0
2017-Oct-16 09:30N 43°23' W 001°48'0 0.0
2017-Oct-16 09:00N 43°23' W 001°48'0 0.0
2017-Oct-16 08:30N 43°23' W 001°48'0 0.0
2017-Oct-16 08:00N 43°23' W 001°48'0 0.0
2017-Oct-16 07:30N 43°23' W 001°48'0 0.0
2017-Oct-16 07:00N 43°23' W 001°48'0 0.0
2017-Oct-16 06:30N 43°23' W 001°48'0 0.0
2017-Oct-16 06:00N 43°23' W 001°48'0 0.0
2017-Oct-16 05:30N 43°23' W 001°48'0 0.1
2017-Oct-16 05:00N 43°23' W 001°47'0 0.0
2017-Oct-16 04:30N 43°23' W 001°47'0 0.0
2017-Oct-16 04:00N 43°23' W 001°47'0 0.0
2017-Oct-16 03:30N 43°23' W 001°47'0 0.0
2017-Oct-16 03:00N 43°23' W 001°47'0 0.0
2017-Oct-16 02:30N 43°23' W 001°47'0 0.0
2017-Oct-16 02:00N 43°23' W 001°47'0 0.0
2017-Oct-16 01:30N 43°23' W 001°47'0 0.0
2017-Oct-16 01:00N 43°23' W 001°47'0 0.0
2017-Oct-16 00:30N 43°23' W 001°47'0 0.0
2017-Oct-16 00:00N 43°23' W 001°47'0 0.0
2017-Oct-15 23:30N 43°23' W 001°47'0 0.0
2017-Oct-15 23:00N 43°23' W 001°47'0 0.0
2017-Oct-15 22:30N 43°23' W 001°47'0 0.0
2017-Oct-15 22:00N 43°23' W 001°47'0 0.0
2017-Oct-15 21:30N 43°23' W 001°47'0 0.0
2017-Oct-15 21:00N 43°23' W 001°47'0 0.0
2017-Oct-15 20:30N 43°23' W 001°47'0 0.0
2017-Oct-15 20:00N 43°23' W 001°47'0 0.0
2017-Oct-15 19:30N 43°23' W 001°47'0 0.0
2017-Oct-15 19:00N 43°23' W 001°47'0 0.0
2017-Oct-15 18:30N 43°23' W 001°47'0 0.0
2017-Oct-15 18:00N 43°23' W 001°47'0 0.0
2017-Oct-15 17:30N 43°23' W 001°47'0 0.0
2017-Oct-15 17:00N 43°23' W 001°47'0 0.0
2017-Oct-15 16:30N 43°23' W 001°47'0 0.0
2017-Oct-15 16:00N 43°23' W 001°47'0 0.0
2017-Oct-15 15:30N 43°23' W 001°47'0 0.0
2017-Oct-15 15:00N 43°23' W 001°47'0 0.0
2017-Oct-15 14:00N 43°23' W 001°47'0 0.0
2017-Oct-15 13:30N 43°23' W 001°47'0 0.0
2017-Oct-15 13:00N 43°23' W 001°47'0 0.0
2017-Oct-15 12:30N 43°23' W 001°47'0 0.0
2017-Oct-15 12:00N 43°23' W 001°47'0 0.0
2017-Oct-15 11:30N 43°23' W 001°47'0 0.0
2017-Oct-15 11:00N 43°23' W 001°47'0 0.0
2017-Oct-15 10:30N 43°23' W 001°47'0 0.0
2017-Oct-15 10:00N 43°23' W 001°47'0 0.0
2017-Oct-15 09:30N 43°23' W 001°47'0 0.0
2017-Oct-15 09:00N 43°23' W 001°47'0 0.0
2017-Oct-15 08:30N 43°23' W 001°47'0 0.0
2017-Oct-15 08:00N 43°23' W 001°47'0 0.0
2017-Oct-15 07:30N 43°23' W 001°47'0 0.0
2017-Oct-15 07:00N 43°23' W 001°47'0 0.0
2017-Oct-15 06:30N 43°23' W 001°47'0 0.0
2017-Oct-15 06:00N 43°23' W 001°47'1 2.2
2017-Oct-15 05:30N 43°24' W 001°48'4 8.0
2017-Oct-15 05:00N 43°24' W 001°53'4 8.2
2017-Oct-15 04:30N 43°24' W 001°59'4 8.2
2017-Oct-15 04:00N 43°25' W 002°04'4 8.4
2017-Oct-15 03:30N 43°25' W 002°10'4 8.4
2017-Oct-15 03:00N 43°25' W 002°16'4 8.5
2017-Oct-15 02:30N 43°25' W 002°22'4 8.4
2017-Oct-15 02:00N 43°25' W 002°28'4 8.1
2017-Oct-15 01:30N 43°25' W 002°33'4 8.0
2017-Oct-15 01:00N 43°26' W 002°38'4 7.7
2017-Oct-15 00:30N 43°27' W 002°43'0 0.9
2017-Oct-15 00:00N 43°27' W 002°43'0 0.6
2017-Oct-14 23:30N 43°27' W 002°43'0 0.1
2017-Oct-14 23:00N 43°27' W 002°43'0 0.0
2017-Oct-14 22:30N 43°26' W 002°43'0 0.0
2017-Oct-14 22:00N 43°26' W 002°43'0 0.0
2017-Oct-14 21:30N 43°26' W 002°43'0 0.0
2017-Oct-14 21:00N 43°26' W 002°43'0 0.1
2017-Oct-14 20:30N 43°26' W 002°43'0 0.0
2017-Oct-14 20:00N 43°26' W 002°43'0 0.2
2017-Oct-14 19:30N 43°26' W 002°44'4 8.2
2017-Oct-14 19:00N 43°29' W 002°48'510.4
2017-Oct-14 18:30N 43°32' W 002°54'510.3
2017-Oct-14 18:00N 43°34' W 003°00'510.4
2017-Oct-14 17:30N 43°37' W 003°07'510.6
2017-Oct-14 17:00N 43°39' W 003°13'510.4
2017-Oct-14 16:30N 43°42' W 003°19'510.3
2017-Oct-14 16:00N 43°44' W 003°26'510.3
2017-Oct-14 15:29N 43°47' W 003°32'510.3
2017-Oct-14 15:00N 43°49' W 003°38'4 8.7
2017-Oct-14 14:30N 43°51' W 003°43'1 1.2
2017-Oct-14 14:00N 43°52' W 003°43'1 1.7
2017-Oct-14 13:30N 43°52' W 003°42'4 7.6
2017-Oct-14 13:00N 43°51' W 003°36'3 5.1
2017-Oct-14 12:27N 43°51' W 003°32'5 9.8
2017-Oct-14 11:57N 43°53' W 003°26'3 6.5
2017-Oct-14 11:30N 43°51' W 003°24'4 8.7
2017-Oct-14 11:00N 43°47' W 003°28'3 6.1
2017-Oct-14 10:30N 43°50' W 003°31'3 6.3
2017-Oct-14 10:00N 43°52' W 003°29'2 4.7
2017-Oct-14 09:30N 43°50' W 003°28'2 3.6
2017-Oct-14 09:00N 43°48' W 003°27'3 5.0
2017-Oct-14 08:30N 43°47' W 003°25'3 5.0
2017-Oct-14 08:00N 43°48' W 003°21'3 5.0
2017-Oct-14 07:30N 43°50' W 003°20'5 6.3
2017-Oct-14 06:46N 43°52' W 003°14'2 7.8
2017-Oct-14 06:28N 43°51' W 003°11'4 7.9
2017-Oct-14 06:00N 43°48' W 003°11'5 9.4
2017-Oct-14 05:30N 43°43' W 003°13'5 9.6
2017-Oct-14 05:00N 43°39' W 003°16'5 9.8
2017-Oct-14 04:30N 43°34' W 003°19'5 9.7
2017-Oct-14 04:00N 43°30' W 003°21'3 6.8
2017-Oct-14 03:30N 43°27' W 003°24'0 0.2
2017-Oct-14 03:00N 43°27' W 003°24'0 0.3
2017-Oct-14 02:30N 43°27' W 003°24'0 0.4
2017-Oct-14 02:00N 43°27' W 003°24'0 0.3
2017-Oct-14 01:30N 43°27' W 003°24'0 0.2
2017-Oct-14 01:00N 43°27' W 003°25'0 0.5
2017-Oct-14 00:30N 43°27' W 003°24'0 0.3
2017-Oct-14 00:00N 43°27' W 003°24'0 0.0
2017-Oct-13 23:30N 43°27' W 003°24'0 0.0
2017-Oct-13 23:00N 43°27' W 003°24'0 0.0
2017-Oct-13 22:30N 43°27' W 003°24'0 0.0
2017-Oct-13 22:00N 43°27' W 003°24'0 0.0
2017-Oct-13 21:30N 43°27' W 003°24'0 0.0
2017-Oct-13 21:00N 43°27' W 003°24'0 0.0
2017-Oct-13 20:30N 43°27' W 003°24'0 0.0
2017-Oct-13 20:00N 43°27' W 003°24'0 0.0
2017-Oct-13 19:30N 43°27' W 003°24'0 0.2
2017-Oct-13 19:00N 43°27' W 003°25'0 0.1
2017-Oct-13 18:30N 43°27' W 003°24'0 0.1
2017-Oct-13 18:00N 43°27' W 003°24'0 0.0
2017-Oct-13 17:30N 43°27' W 003°24'0 0.0
2017-Oct-13 17:00N 43°27' W 003°24'0 0.3
2017-Oct-13 16:30N 43°27' W 003°25'3 6.1
2017-Oct-13 16:00N 43°29' W 003°22'5 9.6
2017-Oct-13 15:30N 43°33' W 003°19'5 9.7
2017-Oct-13 15:00N 43°37' W 003°15'5 9.8
2017-Oct-13 14:30N 43°41' W 003°10'5 9.9
2017-Oct-13 14:00N 43°45' W 003°06'4 7.2
2017-Oct-13 13:30N 43°49' W 003°05'4 8.5
2017-Oct-13 13:00N 43°50' W 003°11'4 7.6
2017-Oct-13 12:30N 43°51' W 003°16'0 0.8
2017-Oct-13 12:00N 43°51' W 003°16'0 0.9
2017-Oct-13 11:30N 43°51' W 003°16'3 6.7
2017-Oct-13 11:00N 43°49' W 003°12'3 6.3
2017-Oct-13 10:30N 43°46' W 003°09'3 6.1
2017-Oct-13 10:00N 43°44' W 003°06'510.9
2017-Oct-13 09:30N 43°41' W 003°00'5 9.7
2017-Oct-13 09:00N 43°40' W 002°53'510.5
2017-Oct-13 08:30N 43°38' W 002°47'510.4
2017-Oct-13 08:00N 43°37' W 002°40'5 9.9
2017-Oct-13 07:30N 43°35' W 002°33'5 9.7
2017-Oct-13 07:00N 43°34' W 002°27'5 9.8
2017-Oct-13 06:31N 43°32' W 002°21'5 9.8
2017-Oct-13 06:00N 43°31' W 002°14'5 9.9
2017-Oct-13 05:30N 43°30' W 002°08'5 9.6
2017-Oct-13 05:00N 43°28' W 002°01'4 8.2
2017-Oct-13 04:30N 43°26' W 001°56'2 4.2
2017-Oct-13 04:00N 43°24' W 001°56'0 0.4
2017-Oct-13 03:30N 43°24' W 001°56'1 2.8
2017-Oct-13 03:00N 43°25' W 001°54'0 0.6
2017-Oct-13 02:30N 43°25' W 001°53'0 0.2
2017-Oct-13 02:00N 43°25' W 001°53'4 8.8
2017-Oct-13 01:30N 43°24' W 001°47'1 1.8
2017-Oct-13 01:00N 43°23' W 001°48'0 0.0
2017-Oct-13 00:30N 43°23' W 001°48'0 0.0
2017-Oct-13 00:00N 43°23' W 001°48'0 0.0
2017-Oct-12 23:30N 43°23' W 001°48'0 0.0
2017-Oct-12 23:00N 43°23' W 001°48'0 0.0
2017-Oct-12 22:30N 43°23' W 001°48'0 0.0
2017-Oct-12 22:00N 43°23' W 001°48'0 0.1
2017-Oct-12 21:30N 43°23' W 001°48'3 5.8
2017-Oct-12 21:00N 43°26' W 001°49'510.6
2017-Oct-12 20:30N 43°29' W 001°55'611.2
2017-Oct-12 20:00N 43°33' W 002°00'510.8
2017-Oct-12 19:30N 43°37' W 002°05'510.3
2017-Oct-12 19:00N 43°41' W 002°10'510.4
2017-Oct-12 18:30N 43°46' W 002°13'510.2
2017-Oct-12 18:00N 43°50' W 002°18'510.0
2017-Oct-12 17:30N 43°54' W 002°22'510.1
2017-Oct-12 17:00N 43°58' W 002°26'510.1
2017-Oct-12 16:30N 44°02' W 002°31'5 9.7
2017-Oct-12 16:00N 44°06' W 002°35'510.0
2017-Oct-12 15:30N 44°10' W 002°39'5 9.9
2017-Oct-12 15:00N 44°14' W 002°43'510.1
2017-Oct-12 14:30N 44°17' W 002°48'510.0
2017-Oct-12 14:00N 44°21' W 002°52'  
Track history (hours):
 
Tides and Currents Weather Stations Pressure Air Temp Water Temp Dewpoint Dewpoint Depression Visibility Wind Speed Wind Dir Waves Ship Positions

San Fermin Berria

Last reported at 2017-Oct-19 14:43 UTC. Time now 2017-Nov-20 04:16 UTC.
Position N 43°17' W 002°08'.
Warning: this ship's position is 31 days out of date.

Length 30 m.

Type: Fishing. MMSI: 224114650.

Date/timePositionNaut miles runAvg speedWind from/ knotsBaromVisibWave heightAir tempDewpointWater temp
2017-Oct-19 14:43N 43°17' W 002°08'1 4.0
2017-Oct-19 14:30N 43°17' W 002°08'5 9.7
2017-Oct-19 14:01N 43°21' W 002°03'611.1
2017-Oct-19 13:30N 43°23' W 001°56'511.0
2017-Oct-19 13:01N 43°24' W 001°49'1 0.0
2017-Oct-18 00:01N 43°23' W 001°48'0 0.0
2017-Oct-18 00:00N 43°23' W 001°48'0 0.0
2017-Oct-17 17:16N 43°23' W 001°48'0 0.0
2017-Oct-17 17:00N 43°23' W 001°48'2 3.3
2017-Oct-17 16:30N 43°25' W 001°49'4 7.8
2017-Oct-17 16:00N 43°26' W 001°53'4 7.9
2017-Oct-17 15:30N 43°28' W 001°58'24 7.7
2017-Oct-17 12:24N 43°40' W 002°27'4 1.7
2017-Oct-17 10:12N 43°40' W 002°32'1 2.1
2017-Oct-17 09:45N 43°41' W 002°33'0 1.2
2017-Oct-17 09:26N 43°40' W 002°33'3 8.0
2017-Oct-17 09:00N 43°39' W 002°29'611.0
2017-Oct-17 08:30N 43°38' W 002°22'510.8
2017-Oct-17 08:00N 43°37' W 002°14'611.4
2017-Oct-17 07:30N 43°37' W 002°07'510.6
2017-Oct-17 07:00N 43°36' W 001°59'5 9.9
2017-Oct-17 06:30N 43°35' W 001°53'510.0
2017-Oct-17 06:00N 43°31' W 001°49'5 9.5
2017-Oct-17 05:30N 43°26' W 001°47'3 6.0
2017-Oct-17 05:00N 43°23' W 001°47'0 0.1
2017-Oct-17 04:30N 43°23' W 001°47'0 0.2
2017-Oct-17 04:00N 43°23' W 001°48'0 0.0
2017-Oct-17 03:30N 43°23' W 001°48'0 0.0
2017-Oct-17 03:00N 43°23' W 001°48'0 0.0
2017-Oct-17 02:30N 43°23' W 001°48'0 0.0
2017-Oct-17 02:00N 43°23' W 001°48'0 0.0
2017-Oct-17 01:30N 43°23' W 001°48'0 0.0
2017-Oct-17 01:00N 43°23' W 001°48'0 0.0
2017-Oct-17 00:30N 43°23' W 001°48'0 0.0
2017-Oct-17 00:00N 43°23' W 001°48'0 0.0
2017-Oct-16 23:30N 43°23' W 001°48'0 0.0
2017-Oct-16 23:00N 43°23' W 001°48'0 0.0
2017-Oct-16 22:30N 43°23' W 001°48'0 0.0
2017-Oct-16 22:00N 43°23' W 001°48'0 0.0
2017-Oct-16 21:30N 43°23' W 001°48'0 0.0
2017-Oct-16 21:00N 43°23' W 001°48'0 0.0
2017-Oct-16 20:30N 43°23' W 001°48'0 0.0
2017-Oct-16 20:00N 43°23' W 001°48'0 0.0
2017-Oct-16 19:30N 43°23' W 001°48'0 0.0
2017-Oct-16 19:00N 43°23' W 001°48'0 0.0
2017-Oct-16 18:30N 43°23' W 001°48'0 0.0
2017-Oct-16 18:00N 43°23' W 001°48'0 0.0
2017-Oct-16 17:30N 43°23' W 001°48'0 0.0
2017-Oct-16 17:00N 43°23' W 001°48'0 0.0
2017-Oct-16 16:30N 43°23' W 001°48'0 0.0
2017-Oct-16 16:00N 43°23' W 001°48'0 0.0
2017-Oct-16 15:30N 43°23' W 001°48'0 0.0
2017-Oct-16 15:00N 43°23' W 001°48'0 0.0
2017-Oct-16 14:00N 43°23' W 001°48'0 0.0
2017-Oct-16 13:30N 43°23' W 001°48'0 0.0
2017-Oct-16 13:00N 43°23' W 001°48'0 0.0
2017-Oct-16 12:30N 43°23' W 001°48'0 0.0
2017-Oct-16 12:00N 43°23' W 001°48'0 0.0
2017-Oct-16 11:30N 43°23' W 001°48'0 0.0
2017-Oct-16 11:00N 43°23' W 001°48'0 0.0
2017-Oct-16 10:30N 43°23' W 001°48'0 0.0
2017-Oct-16 10:00N 43°23' W 001°48'0 0.0
2017-Oct-16 09:30N 43°23' W 001°48'0 0.0
2017-Oct-16 09:00N 43°23' W 001°48'0 0.0
2017-Oct-16 08:30N 43°23' W 001°48'0 0.0
2017-Oct-16 08:00N 43°23' W 001°48'0 0.0
2017-Oct-16 07:30N 43°23' W 001°48'0 0.0
2017-Oct-16 07:00N 43°23' W 001°48'0 0.0
2017-Oct-16 06:30N 43°23' W 001°48'0 0.0
2017-Oct-16 06:00N 43°23' W 001°48'0 0.0
2017-Oct-16 05:30N 43°23' W 001°48'0 0.1
2017-Oct-16 05:00N 43°23' W 001°47'0 0.0
2017-Oct-16 04:30N 43°23' W 001°47'0 0.0
2017-Oct-16 04:00N 43°23' W 001°47'0 0.0
2017-Oct-16 03:30N 43°23' W 001°47'0 0.0
2017-Oct-16 03:00N 43°23' W 001°47'0 0.0
2017-Oct-16 02:30N 43°23' W 001°47'0 0.0
2017-Oct-16 02:00N 43°23' W 001°47'0 0.0
2017-Oct-16 01:30N 43°23' W 001°47'0 0.0
2017-Oct-16 01:00N 43°23' W 001°47'0 0.0
2017-Oct-16 00:30N 43°23' W 001°47'0 0.0
2017-Oct-16 00:00N 43°23' W 001°47'0 0.0
2017-Oct-15 23:30N 43°23' W 001°47'0 0.0
2017-Oct-15 23:00N 43°23' W 001°47'0 0.0
2017-Oct-15 22:30N 43°23' W 001°47'0 0.0
2017-Oct-15 22:00N 43°23' W 001°47'0 0.0
2017-Oct-15 21:30N 43°23' W 001°47'0 0.0
2017-Oct-15 21:00N 43°23' W 001°47'0 0.0
2017-Oct-15 20:30N 43°23' W 001°47'0 0.0
2017-Oct-15 20:00N 43°23' W 001°47'0 0.0
2017-Oct-15 19:30N 43°23' W 001°47'0 0.0
2017-Oct-15 19:00N 43°23' W 001°47'0 0.0
2017-Oct-15 18:30N 43°23' W 001°47'0 0.0
2017-Oct-15 18:00N 43°23' W 001°47'0 0.0
2017-Oct-15 17:30N 43°23' W 001°47'0 0.0
2017-Oct-15 17:00N 43°23' W 001°47'0 0.0
2017-Oct-15 16:30N 43°23' W 001°47'0 0.0
2017-Oct-15 16:00N 43°23' W 001°47'0 0.0
2017-Oct-15 15:30N 43°23' W 001°47'0 0.0
2017-Oct-15 15:00N 43°23' W 001°47'0 0.0
2017-Oct-15 14:00N 43°23' W 001°47'0 0.0
2017-Oct-15 13:30N 43°23' W 001°47'0 0.0
2017-Oct-15 13:00N 43°23' W 001°47'0 0.0
2017-Oct-15 12:30N 43°23' W 001°47'0 0.0
2017-Oct-15 12:00N 43°23' W 001°47'0 0.0
2017-Oct-15 11:30N 43°23' W 001°47'0 0.0
2017-Oct-15 11:00N 43°23' W 001°47'0 0.0
2017-Oct-15 10:30N 43°23' W 001°47'0 0.0
2017-Oct-15 10:00N 43°23' W 001°47'0 0.0
2017-Oct-15 09:30N 43°23' W 001°47'0 0.0
2017-Oct-15 09:00N 43°23' W 001°47'0 0.0
2017-Oct-15 08:30N 43°23' W 001°47'0 0.0
2017-Oct-15 08:00N 43°23' W 001°47'0 0.0
2017-Oct-15 07:30N 43°23' W 001°47'0 0.0
2017-Oct-15 07:00N 43°23' W 001°47'0 0.0
2017-Oct-15 06:30N 43°23' W 001°47'0 0.0
2017-Oct-15 06:00N 43°23' W 001°47'1 2.2
2017-Oct-15 05:30N 43°24' W 001°48'4 8.0
2017-Oct-15 05:00N 43°24' W 001°53'4 8.2
2017-Oct-15 04:30N 43°24' W 001°59'4 8.2
2017-Oct-15 04:00N 43°25' W 002°04'4 8.4
2017-Oct-15 03:30N 43°25' W 002°10'4 8.4
2017-Oct-15 03:00N 43°25' W 002°16'4 8.5
2017-Oct-15 02:30N 43°25' W 002°22'4 8.4
2017-Oct-15 02:00N 43°25' W 002°28'4 8.1
2017-Oct-15 01:30N 43°25' W 002°33'4 8.0
2017-Oct-15 01:00N 43°26' W 002°38'4 7.7
2017-Oct-15 00:30N 43°27' W 002°43'0 0.9
2017-Oct-15 00:00N 43°27' W 002°43'0 0.6
2017-Oct-14 23:30N 43°27' W 002°43'0 0.1
2017-Oct-14 23:00N 43°27' W 002°43'0 0.0
2017-Oct-14 22:30N 43°26' W 002°43'0 0.0
2017-Oct-14 22:00N 43°26' W 002°43'0 0.0
2017-Oct-14 21:30N 43°26' W 002°43'0 0.0
2017-Oct-14 21:00N 43°26' W 002°43'0 0.1
2017-Oct-14 20:30N 43°26' W 002°43'0 0.0
2017-Oct-14 20:00N 43°26' W 002°43'0 0.2
2017-Oct-14 19:30N 43°26' W 002°44'4 8.2
2017-Oct-14 19:00N 43°29' W 002°48'510.4
2017-Oct-14 18:30N 43°32' W 002°54'510.3
2017-Oct-14 18:00N 43°34' W 003°00'510.4
2017-Oct-14 17:30N 43°37' W 003°07'510.6
2017-Oct-14 17:00N 43°39' W 003°13'510.4
2017-Oct-14 16:30N 43°42' W 003°19'510.3
2017-Oct-14 16:00N 43°44' W 003°26'510.3
2017-Oct-14 15:29N 43°47' W 003°32'510.3
2017-Oct-14 15:00N 43°49' W 003°38'4 8.7
2017-Oct-14 14:30N 43°51' W 003°43'1 1.2
2017-Oct-14 14:00N 43°52' W 003°43'1 1.7
2017-Oct-14 13:30N 43°52' W 003°42'4 7.6
2017-Oct-14 13:00N 43°51' W 003°36'3 5.1
2017-Oct-14 12:27N 43°51' W 003°32'5 9.8
2017-Oct-14 11:57N 43°53' W 003°26'3 6.5
2017-Oct-14 11:30N 43°51' W 003°24'4 8.7
2017-Oct-14 11:00N 43°47' W 003°28'3 6.1
2017-Oct-14 10:30N 43°50' W 003°31'3 6.3
2017-Oct-14 10:00N 43°52' W 003°29'2 4.7
2017-Oct-14 09:30N 43°50' W 003°28'2 3.6
2017-Oct-14 09:00N 43°48' W 003°27'3 5.0
2017-Oct-14 08:30N 43°47' W 003°25'3 5.0
2017-Oct-14 08:00N 43°48' W 003°21'3 5.0
2017-Oct-14 07:30N 43°50' W 003°20'5 6.3
2017-Oct-14 06:46N 43°52' W 003°14'2 7.8
2017-Oct-14 06:28N 43°51' W 003°11'4 7.9
2017-Oct-14 06:00N 43°48' W 003°11'5 9.4
2017-Oct-14 05:30N 43°43' W 003°13'5 9.6
2017-Oct-14 05:00N 43°39' W 003°16'5 9.8
2017-Oct-14 04:30N 43°34' W 003°19'5 9.7
2017-Oct-14 04:00N 43°30' W 003°21'3 6.8
2017-Oct-14 03:30N 43°27' W 003°24'0 0.2
2017-Oct-14 03:00N 43°27' W 003°24'0 0.3
2017-Oct-14 02:30N 43°27' W 003°24'0 0.4
2017-Oct-14 02:00N 43°27' W 003°24'0 0.3
2017-Oct-14 01:30N 43°27' W 003°24'0 0.2
2017-Oct-14 01:00N 43°27' W 003°25'0 0.5
2017-Oct-14 00:30N 43°27' W 003°24'0 0.3
2017-Oct-14 00:00N 43°27' W 003°24'0 0.0
2017-Oct-13 23:30N 43°27' W 003°24'0 0.0
2017-Oct-13 23:00N 43°27' W 003°24'0 0.0
2017-Oct-13 22:30N 43°27' W 003°24'0 0.0
2017-Oct-13 22:00N 43°27' W 003°24'0 0.0
2017-Oct-13 21:30N 43°27' W 003°24'0 0.0
2017-Oct-13 21:00N 43°27' W 003°24'0 0.0
2017-Oct-13 20:30N 43°27' W 003°24'0 0.0
2017-Oct-13 20:00N 43°27' W 003°24'0 0.0
2017-Oct-13 19:30N 43°27' W 003°24'0 0.2
2017-Oct-13 19:00N 43°27' W 003°25'0 0.1
2017-Oct-13 18:30N 43°27' W 003°24'0 0.1
2017-Oct-13 18:00N 43°27' W 003°24'0 0.0
2017-Oct-13 17:30N 43°27' W 003°24'0 0.0
2017-Oct-13 17:00N 43°27' W 003°24'0 0.3
2017-Oct-13 16:30N 43°27' W 003°25'3 6.1
2017-Oct-13 16:00N 43°29' W 003°22'5 9.6
2017-Oct-13 15:30N 43°33' W 003°19'5 9.7
2017-Oct-13 15:00N 43°37' W 003°15'5 9.8
2017-Oct-13 14:30N 43°41' W 003°10'5 9.9
2017-Oct-13 14:00N 43°45' W 003°06'4 7.2
2017-Oct-13 13:30N 43°49' W 003°05'4 8.5
2017-Oct-13 13:00N 43°50' W 003°11'4 7.6
2017-Oct-13 12:30N 43°51' W 003°16'0 0.8
2017-Oct-13 12:00N 43°51' W 003°16'0 0.9
2017-Oct-13 11:30N 43°51' W 003°16'3 6.7
2017-Oct-13 11:00N 43°49' W 003°12'3 6.3
2017-Oct-13 10:30N 43°46' W 003°09'3 6.1
2017-Oct-13 10:00N 43°44' W 003°06'510.9
2017-Oct-13 09:30N 43°41' W 003°00'5 9.7
2017-Oct-13 09:00N 43°40' W 002°53'510.5
2017-Oct-13 08:30N 43°38' W 002°47'510.4
2017-Oct-13 08:00N 43°37' W 002°40'5 9.9
2017-Oct-13 07:30N 43°35' W 002°33'5 9.7
2017-Oct-13 07:00N 43°34' W 002°27'5 9.8
2017-Oct-13 06:31N 43°32' W 002°21'5 9.8
2017-Oct-13 06:00N 43°31' W 002°14'5 9.9
2017-Oct-13 05:30N 43°30' W 002°08'5 9.6
2017-Oct-13 05:00N 43°28' W 002°01'4 8.2
2017-Oct-13 04:30N 43°26' W 001°56'2 4.2
2017-Oct-13 04:00N 43°24' W 001°56'0 0.4
2017-Oct-13 03:30N 43°24' W 001°56'1 2.8
2017-Oct-13 03:00N 43°25' W 001°54'0 0.6
2017-Oct-13 02:30N 43°25' W 001°53'0 0.2
2017-Oct-13 02:00N 43°25' W 001°53'4 8.8
2017-Oct-13 01:30N 43°24' W 001°47'1 1.8
2017-Oct-13 01:00N 43°23' W 001°48'0 0.0
2017-Oct-13 00:30N 43°23' W 001°48'0 0.0
2017-Oct-13 00:00N 43°23' W 001°48'0 0.0
2017-Oct-12 23:30N 43°23' W 001°48'0 0.0
2017-Oct-12 23:00N 43°23' W 001°48'0 0.0
2017-Oct-12 22:30N 43°23' W 001°48'0 0.0
2017-Oct-12 22:00N 43°23' W 001°48'0 0.1
2017-Oct-12 21:30N 43°23' W 001°48'3 5.8
2017-Oct-12 21:00N 43°26' W 001°49'510.6
2017-Oct-12 20:30N 43°29' W 001°55'611.2
2017-Oct-12 20:00N 43°33' W 002°00'510.8
2017-Oct-12 19:30N 43°37' W 002°05'510.3
2017-Oct-12 19:00N 43°41' W 002°10'510.4
2017-Oct-12 18:30N 43°46' W 002°13'510.2
2017-Oct-12 18:00N 43°50' W 002°18'510.0
2017-Oct-12 17:30N 43°54' W 002°22'510.1
2017-Oct-12 17:00N 43°58' W 002°26'510.1
2017-Oct-12 16:30N 44°02' W 002°31'5 9.7
2017-Oct-12 16:00N 44°06' W 002°35'510.0
2017-Oct-12 15:30N 44°10' W 002°39'5 9.9
2017-Oct-12 15:00N 44°14' W 002°43'510.1
2017-Oct-12 14:30N 44°17' W 002°48'510.0
2017-Oct-12 14:00N 44°21' W 002°52'  

Dump ship's entire track history